Terminal Aerodrome Forecast
Issued by NWS Cleveland, OH

Home | Current Version | Previous Version | Graphics & Text | Print | Product List | Glossary On
Versions: 1 2 3 4 5 6 7 8 9 10 11 12 13 14 15 16 17 18 19 20 21 22 23 24 25
453
FTUS41 KCLE 271307 AAA
TAFERI
TAF AMD
KERI 271307Z 2713/2812 24008KT P6SM OVC015
      TEMPO 2713/2715 3SM -SHRA BR OVC008
     FM271500 22010KT P6SM BKN025
     FM271800 26008KT P6SM BKN050
     FM280000 VRB03KT P6SM OVC100
     FM280800 10005KT 6SM -RA OVC015
     FM281000 05005KT 3SM -RA BR OVC008=

USA.gov is the U.S. government's official web portal to all federal, state and local government web resources and services.